Aviation Digital Data Service (ADDS)

Output produced by METARs form (0335 UTC 27 September 2016)
found at http://aviationweather.gov/adds/metars/
 
KVQQ 270156Z 2702/2724 05008KT P6SM SCT020 BKN025 OVC035 
     FM270800 00000KT 3SM BR BKN020 
     TEMPO 2709/2713 1 1/2SM BR BKN015 
     FM271300 29005KT P6SM SCT025 BKN040 
     FM271900 23004KT P6SM VCTS FEW020 SCT035CB BKN200